DAL155 EHWO-LEZL
Flight info
| Callsign | DAL155 |
|---|---|
| Flight time | N/A |
| Altitude | 37000 |
| Route | CIV DCT DIBES DCT DIDRU DCT CEGAM DCT BASIM DCT DOPEN DCT SOTUK DCT KOPOM DCT MILS2 |
| Aircraft | B77W/H-SDE1E2E3FGHIJ2J3J4J5M1RWXY/LB1D1 |
Departure
| Time | N/A |
|---|---|
| Airport | Woensdrecht Air Base (EHWO) |
Arrival
| Time | 2026-04-21 12:59 |
|---|---|
| Airport | Seville Airport (LEZL) |
| Time | Latitude | Longitude | Altitude | Speed | Heading |
|---|---|---|---|---|---|
| 2026-04-21 12:29 | 39.45451 | -4.57867 | 35881 ft | 435 kts | 208° |
| 2026-04-21 12:29 | 39.42741 | -4.59612 | 35882 ft | 435 kts | 208° |
| 2026-04-21 12:30 | 39.37330 | -4.63095 | 35864 ft | 434 kts | 208° |
| 2026-04-21 12:30 | 39.31927 | -4.66569 | 35865 ft | 434 kts | 208° |
| 2026-04-21 12:31 | 39.26522 | -4.70038 | 35881 ft | 433 kts | 208° |
| 2026-04-21 12:31 | 39.21158 | -4.73474 | 35861 ft | 433 kts | 208° |
| 2026-04-21 12:32 | 39.15917 | -4.77278 | 35881 ft | 431 kts | 213° |
| 2026-04-21 12:32 | 39.10805 | -4.81330 | 35882 ft | 432 kts | 213° |
| 2026-04-21 12:33 | 39.05671 | -4.85364 | 35855 ft | 433 kts | 213° |
| 2026-04-21 12:33 | 39.00558 | -4.89365 | 35852 ft | 433 kts | 213° |
| 2026-04-21 12:34 | 38.95420 | -4.93248 | 35566 ft | 426 kts | 211° |
| 2026-04-21 12:34 | 38.92842 | -4.95143 | 34956 ft | 426 kts | 211° |
| 2026-04-21 12:34 | 38.90271 | -4.97028 | 34275 ft | 427 kts | 211° |
| 2026-04-21 12:34 | 38.87683 | -4.98933 | 33508 ft | 430 kts | 211° |
| 2026-04-21 12:35 | 38.85143 | -5.00808 | 32742 ft | 432 kts | 211° |
| 2026-04-21 12:35 | 38.82560 | -5.02717 | 31916 ft | 436 kts | 211° |
| 2026-04-21 12:35 | 38.79923 | -5.04667 | 31102 ft | 439 kts | 211° |
| 2026-04-21 12:35 | 38.77278 | -5.06620 | 30496 ft | 438 kts | 211° |
| 2026-04-21 12:36 | 38.74643 | -5.08561 | 29870 ft | 437 kts | 211° |
| 2026-04-21 12:36 | 38.72033 | -5.10549 | 29264 ft | 435 kts | 212° |
| 2026-04-21 12:36 | 38.69462 | -5.12582 | 28661 ft | 434 kts | 212° |
| 2026-04-21 12:36 | 38.66915 | -5.14623 | 28059 ft | 433 kts | 212° |
| 2026-04-21 12:37 | 38.64371 | -5.16664 | 27449 ft | 432 kts | 213° |
| 2026-04-21 12:37 | 38.61810 | -5.18711 | 26874 ft | 430 kts | 212° |
| 2026-04-21 12:37 | 38.59309 | -5.20700 | 26274 ft | 429 kts | 212° |
| 2026-04-21 12:37 | 38.56777 | -5.22704 | 25676 ft | 427 kts | 212° |
| 2026-04-21 12:38 | 38.54259 | -5.24693 | 25095 ft | 426 kts | 212° |
| 2026-04-21 12:38 | 38.51738 | -5.26680 | 24519 ft | 424 kts | 212° |
| 2026-04-21 12:38 | 38.49233 | -5.28653 | 23925 ft | 423 kts | 212° |
| 2026-04-21 12:38 | 38.46734 | -5.30616 | 23348 ft | 421 kts | 212° |
| 2026-04-21 12:39 | 38.44245 | -5.32571 | 22779 ft | 419 kts | 212° |
| 2026-04-21 12:39 | 38.41765 | -5.34518 | 22192 ft | 418 kts | 212° |
| 2026-04-21 12:39 | 38.39298 | -5.36454 | 21648 ft | 416 kts | 212° |
| 2026-04-21 12:39 | 38.36871 | -5.38357 | 21095 ft | 413 kts | 212° |
| 2026-04-21 12:40 | 38.34425 | -5.40269 | 20533 ft | 411 kts | 212° |
| 2026-04-21 12:40 | 38.31992 | -5.42174 | 19979 ft | 409 kts | 212° |
| 2026-04-21 12:40 | 38.29574 | -5.44066 | 19431 ft | 407 kts | 212° |
| 2026-04-21 12:40 | 38.27166 | -5.45949 | 18879 ft | 405 kts | 212° |
| 2026-04-21 12:41 | 38.24771 | -5.47819 | 18330 ft | 402 kts | 212° |
| 2026-04-21 12:41 | 38.22394 | -5.49674 | 17799 ft | 400 kts | 212° |
| 2026-04-21 12:41 | 38.20057 | -5.51497 | 17266 ft | 398 kts | 212° |
| 2026-04-21 12:41 | 38.17705 | -5.53328 | 16749 ft | 396 kts | 211° |
| 2026-04-21 12:42 | 38.15373 | -5.55143 | 16286 ft | 392 kts | 211° |
| 2026-04-21 12:42 | 38.13054 | -5.56942 | 15770 ft | 389 kts | 211° |
| 2026-04-21 12:42 | 38.10749 | -5.58732 | 15253 ft | 387 kts | 211° |
| 2026-04-21 12:42 | 38.08457 | -5.60513 | 14724 ft | 386 kts | 211° |
| 2026-04-21 12:43 | 38.06181 | -5.62284 | 14334 ft | 381 kts | 211° |
| 2026-04-21 12:43 | 38.03942 | -5.64024 | 13979 ft | 374 kts | 211° |
| 2026-04-21 12:43 | 38.01731 | -5.65738 | 13358 ft | 375 kts | 211° |
| 2026-04-21 12:43 | 37.99518 | -5.67448 | 12723 ft | 378 kts | 211° |
| 2026-04-21 12:44 | 37.97290 | -5.69173 | 12429 ft | 372 kts | 211° |
| 2026-04-21 12:44 | 37.95104 | -5.70864 | 12079 ft | 366 kts | 211° |
| 2026-04-21 12:44 | 37.92943 | -5.72536 | 11699 ft | 361 kts | 211° |
| 2026-04-21 12:44 | 37.90821 | -5.74176 | 11459 ft | 353 kts | 211° |
| 2026-04-21 12:45 | 37.88762 | -5.75765 | 11385 ft | 341 kts | 211° |
| 2026-04-21 12:45 | 37.86773 | -5.77299 | 11310 ft | 329 kts | 211° |
| 2026-04-21 12:45 | 37.84850 | -5.78779 | 11240 ft | 318 kts | 211° |
| 2026-04-21 12:45 | 37.83011 | -5.80195 | 11163 ft | 308 kts | 210° |
| 2026-04-21 12:46 | 37.81219 | -5.81580 | 11077 ft | 297 kts | 211° |
| 2026-04-21 12:46 | 37.79488 | -5.82913 | 10992 ft | 285 kts | 211° |
| 2026-04-21 12:46 | 37.77823 | -5.84193 | 10847 ft | 277 kts | 210° |
| 2026-04-21 12:46 | 37.76198 | -5.85438 | 10663 ft | 270 kts | 210° |
| 2026-04-21 12:47 | 37.74600 | -5.86661 | 10389 ft | 267 kts | 210° |
| 2026-04-21 12:47 | 37.73012 | -5.87879 | 10030 ft | 267 kts | 210° |
| 2026-04-21 12:47 | 37.71418 | -5.89104 | 9654 ft | 268 kts | 210° |
| 2026-04-21 12:47 | 37.69827 | -5.90323 | 9325 ft | 267 kts | 210° |
| 2026-04-21 12:48 | 37.68241 | -5.91539 | 8920 ft | 267 kts | 210° |
| 2026-04-21 12:48 | 37.66667 | -5.92742 | 8561 ft | 268 kts | 210° |
| 2026-04-21 12:48 | 37.65080 | -5.93955 | 8247 ft | 266 kts | 210° |
| 2026-04-21 12:48 | 37.63511 | -5.95159 | 7983 ft | 263 kts | 210° |
| 2026-04-21 12:49 | 37.61952 | -5.96355 | 7657 ft | 262 kts | 210° |
| 2026-04-21 12:49 | 37.60401 | -5.97539 | 7384 ft | 260 kts | 209° |
| 2026-04-21 12:49 | 37.58859 | -5.98716 | 7038 ft | 259 kts | 209° |
| 2026-04-21 12:49 | 37.57323 | -5.99891 | 6705 ft | 257 kts | 209° |
| 2026-04-21 12:50 | 37.55833 | -6.01031 | 6399 ft | 256 kts | 208° |
| 2026-04-21 12:50 | 37.54339 | -6.02166 | 6092 ft | 253 kts | 208° |
| 2026-04-21 12:50 | 37.52842 | -6.03313 | 5765 ft | 250 kts | 208° |
| 2026-04-21 12:50 | 37.51351 | -6.04451 | 5392 ft | 251 kts | 208° |
| 2026-04-21 12:51 | 37.49860 | -6.05595 | 5004 ft | 251 kts | 211° |
| 2026-04-21 12:51 | 37.48632 | -6.07167 | 4507 ft | 259 kts | 239° |
| 2026-04-21 12:51 | 37.48154 | -6.09357 | 4115 ft | 264 kts | 265° |
| 2026-04-21 12:51 | 37.48176 | -6.11639 | 3956 ft | 257 kts | 269° |
| 2026-04-21 12:52 | 37.48234 | -6.13854 | 3734 ft | 253 kts | 269° |
| 2026-04-21 12:52 | 37.48292 | -6.16039 | 3539 ft | 249 kts | 270° |
| 2026-04-21 12:52 | 37.48139 | -6.18130 | 3500 ft | 236 kts | 244° |
| 2026-04-21 12:52 | 37.47208 | -6.19758 | 3514 ft | 234 kts | 213° |
| 2026-04-21 12:53 | 37.45663 | -6.20541 | 3645 ft | 250 kts | 187° |
| 2026-04-21 12:53 | 37.43905 | -6.20718 | 3669 ft | 256 kts | 181° |
| 2026-04-21 12:53 | 37.42147 | -6.20691 | 3520 ft | 250 kts | 171° |
| 2026-04-21 12:53 | 37.40552 | -6.19861 | 3001 ft | 249 kts | 140° |
| 2026-04-21 12:54 | 37.39571 | -6.18159 | 2493 ft | 239 kts | 108° |
| 2026-04-21 12:54 | 37.39503 | -6.16165 | 2130 ft | 222 kts | 72° |
| 2026-04-21 12:54 | 37.40216 | -6.14586 | 2143 ft | 210 kts | 59° |
| 2026-04-21 12:54 | 37.40855 | -6.12913 | 2114 ft | 214 kts | 72° |
| 2026-04-21 12:55 | 37.41276 | -6.11122 | 2122 ft | 214 kts | 78° |
| 2026-04-21 12:55 | 37.41464 | -6.09905 | 2113 ft | 213 kts | 83° |
| 2026-04-21 12:55 | 37.41688 | -6.07502 | 2116 ft | 214 kts | 86° |
| 2026-04-21 12:55 | 37.41741 | -6.05649 | 2128 ft | 207 kts | 90° |
| 2026-04-21 12:56 | 37.41745 | -6.03882 | 2057 ft | 200 kts | 90° |
| 2026-04-21 12:56 | 37.41747 | -6.02739 | 1869 ft | 193 kts | 90° |
| 2026-04-21 12:56 | 37.41754 | -6.00558 | 1546 ft | 185 kts | 90° |
| 2026-04-21 12:56 | 37.41755 | -5.98971 | 1262 ft | 177 kts | 89° |
| 2026-04-21 12:57 | 37.41749 | -5.97442 | 1096 ft | 176 kts | 87° |
| 2026-04-21 12:57 | 37.41748 | -5.95883 | 813 ft | 179 kts | 86° |
| 2026-04-21 12:57 | 37.41761 | -5.94329 | 544 ft | 176 kts | 86° |
| 2026-04-21 12:57 | 37.41785 | -5.92815 | 299 ft | 168 kts | 88° |
| 2026-04-21 12:58 | 37.41782 | -5.91863 | 204 ft | 163 kts | 88° |
| 2026-04-21 12:58 | 37.41790 | -5.90500 | 99 ft | 147 kts | 88° |
| 2026-04-21 12:58 | 37.41797 | -5.89044 | 105 ft | 102 kts | 89° |
| 2026-04-21 12:58 | 37.41799 | -5.88231 | 109 ft | 84 kts | 90° |
| 2026-04-21 12:59 | 37.41800 | -5.87830 | 111 ft | 69 kts | 90° |
| 2026-04-21 12:59 | 37.41773 | -5.87409 | 113 ft | 23 kts | 132° |
| 2026-04-21 12:59 | 37.41674 | -5.87387 | 116 ft | 23 kts | 202° |
| 2026-04-21 12:59 | 37.41545 | -5.87504 | 117 ft | 23 kts | 219° |
| 2026-04-21 13:00 | 37.41422 | -5.87621 | 115 ft | 22 kts | 208° |
| 2026-04-21 13:00 | 37.41327 | -5.87686 | 111 ft | 9 kts | 237° |
| 2026-04-21 13:00 | 37.41307 | -5.87765 | 110 ft | 10 kts | 265° |
| 2026-04-21 13:00 | 37.41301 | -5.87861 | 112 ft | 14 kts | 267° |
| 2026-04-21 13:01 | 37.41296 | -5.88000 | 109 ft | 16 kts | 267° |
| 2026-04-21 13:01 | 37.41290 | -5.88144 | 108 ft | 17 kts | 267° |
| 2026-04-21 13:01 | 37.41286 | -5.88336 | 108 ft | 17 kts | 269° |
| 2026-04-21 13:01 | 37.41286 | -5.88434 | 107 ft | 17 kts | 269° |
| 2026-04-21 13:02 | 37.41285 | -5.88577 | 106 ft | 17 kts | 269° |
| 2026-04-21 13:02 | 37.41284 | -5.88721 | 103 ft | 17 kts | 269° |
| 2026-04-21 13:02 | 37.41385 | -5.88887 | 106 ft | 16 kts | 16° |
| 2026-04-21 13:03 | 37.41495 | -5.88860 | 106 ft | 16 kts | 10° |
| 2026-04-21 13:03 | 37.41607 | -5.88834 | 108 ft | 16 kts | 10° |
| 2026-04-21 13:03 | 37.41720 | -5.88808 | 107 ft | 16 kts | 10° |
| 2026-04-21 13:03 | 37.41832 | -5.88782 | 108 ft | 16 kts | 10° |
| 2026-04-21 13:04 | 37.41944 | -5.88757 | 109 ft | 16 kts | 10° |
| 2026-04-21 13:04 | 37.42056 | -5.88730 | 109 ft | 16 kts | 11° |
| 2026-04-21 13:04 | 37.42168 | -5.88703 | 108 ft | 16 kts | 11° |
| 2026-04-21 13:04 | 37.42280 | -5.88677 | 108 ft | 16 kts | 11° |
| 2026-04-21 13:05 | 37.42392 | -5.88650 | 107 ft | 16 kts | 11° |
| 2026-04-21 13:05 | 37.42502 | -5.88624 | 104 ft | 17 kts | 11° |
| 2026-04-21 13:05 | 37.42549 | -5.88614 | 105 ft | 0 kts | 1° |